Time;durP1;ratioP1;P1;durP2;ratioP2;P2;SDS_P1;SDS_P2;PMS_P1;PMS_P2;Temp;Humidity;BMP_temperature;BMP_pressure;BME280_temperature;BME280_humidity;BME280_pressure;Samples;Min_cycle;Max_cycle;Signal;HPM_P1;HPM_P2
2021/06/30 00:00:39;;;;;;;7.82;6.00;;;;;;;23.39;59.02;100699.88;5052875;28;20037;-85
2021/06/30 00:03:04;;;;;;;6.53;5.93;;;;;;;23.38;59.11;100703.53;5052316;28;20028;-85
2021/06/30 00:05:29;;;;;;;7.45;6.20;;;;;;;23.35;58.99;100700.22;5041554;28;20048;-85
2021/06/30 00:07:55;;;;;;;6.40;5.80;;;;;;;23.35;59.15;100694.84;5034111;28;20464;-85
2021/06/30 00:10:21;;;;;;;7.45;6.18;;;;;;;23.39;58.98;100700.69;5034507;28;20060;-85
2021/06/30 00:12:46;;;;;;;6.40;5.78;;;;;;;23.32;59.18;100691.69;5034385;28;20491;-85
2021/06/30 00:15:18;;;;;;;7.15;6.47;;;;;;;23.31;59.36;100682.84;5034237;28;20480;-85
2021/06/30 00:17:44;;;;;;;8.23;6.13;;;;;;;23.27;59.29;100691.44;5034269;28;20116;-85
2021/06/30 00:20:11;;;;;;;6.25;5.68;;;;;;;23.29;59.31;100690.22;5034919;28;20136;-85
2021/06/30 00:22:36;;;;;;;6.18;5.50;;;;;;;23.31;59.08;100692.72;5033570;28;20021;-85
2021/06/30 00:25:02;;;;;;;8.23;6.25;;;;;;;23.31;58.88;100692.72;5033984;28;20534;-85
2021/06/30 00:27:27;;;;;;;6.85;6.10;;;;;;;23.26;59.19;100690.59;5034035;28;20028;-86
2021/06/30 00:29:53;;;;;;;7.03;6.32;;;;;;;23.26;59.12;100687.94;5034254;28;20045;-85
2021/06/30 00:32:18;;;;;;;7.43;6.70;;;;;;;23.20;59.42;100680.59;5033941;28;20389;-85
2021/06/30 00:34:44;;;;;;;6.57;5.68;;;;;;;23.22;59.07;100688.44;5034130;28;20037;-85
2021/06/30 00:37:09;;;;;;;6.82;6.10;;;;;;;23.24;59.31;100689.91;5033546;28;20531;-85
2021/06/30 00:39:34;;;;;;;10.90;6.35;;;;;;;23.24;58.98;100684.56;5033750;28;20030;-85
2021/06/30 00:42:00;;;;;;;6.93;6.25;;;;;;;23.24;59.17;100683.75;5033920;28;20025;-85
2021/06/30 00:44:25;;;;;;;8.15;6.78;;;;;;;23.24;59.15;100686.41;5050858;28;20032;-85
2021/06/30 00:46:51;;;;;;;6.38;5.78;;;;;;;23.22;58.97;100681.25;5053496;28;20120;-85
2021/06/30 00:49:16;;;;;;;7.55;6.20;;;;;;;23.19;59.22;100681.63;5053578;28;20029;-85
2021/06/30 00:51:41;;;;;;;8.15;6.50;;;;;;;23.15;59.20;100683.81;5051680;28;20028;-85
2021/06/30 00:54:07;;;;;;;7.13;5.70;;;;;;;23.14;59.30;100681.31;5053496;28;20121;-85
2021/06/30 00:56:32;;;;;;;6.90;6.20;;;;;;;23.13;59.51;100675.13;5053355;28;20417;-85
2021/06/30 00:58:59;;;;;;;6.30;5.80;;;;;;;23.14;59.30;100675.94;5053340;28;20386;-85
2021/06/30 01:01:26;;;;;;;6.72;6.13;;;;;;;23.13;59.36;100671.63;5053373;28;20082;-85
2021/06/30 01:03:52;;;;;;;7.75;6.95;;;;;;;23.14;59.29;100673.28;5053854;28;20475;-85
2021/06/30 01:06:18;;;;;;;6.82;6.03;;;;;;;23.10;59.38;100667.44;5053143;28;20025;-85
2021/06/30 01:08:45;;;;;;;6.63;5.93;;;;;;;23.10;58.88;100669.28;5049795;28;20029;-85
2021/06/30 01:11:11;;;;;;;9.48;6.18;;;;;;;23.06;59.29;100663.44;5052926;28;20024;-85
2021/06/30 01:13:38;;;;;;;7.03;6.32;;;;;;;23.05;59.32;100672.53;5052941;28;20052;-84
2021/06/30 01:16:03;;;;;;;6.40;5.80;;;;;;;23.05;59.21;100660.97;5053119;28;20037;-85
2021/06/30 01:18:30;;;;;;;6.20;5.60;;;;;;;23.05;59.58;100666.34;5053359;28;20029;-85
2021/06/30 01:20:57;;;;;;;6.72;6.13;;;;;;;23.02;59.58;100661.28;5052788;28;20054;-85
2021/06/30 01:23:22;;;;;;;6.55;5.93;;;;;;;23.04;59.31;100667.34;5053003;28;20053;-85
2021/06/30 01:25:49;;;;;;;6.05;5.45;;;;;;;23.02;59.12;100663.97;5051232;28;20076;-85
2021/06/30 01:28:16;;;;;;;10.15;6.47;;;;;;;23.01;59.31;100667.69;5052786;28;20558;-85
2021/06/30 01:30:42;;;;;;;7.72;6.57;;;;;;;23.00;59.00;100660.66;5052895;28;20025;-85
2021/06/30 01:33:07;;;;;;;6.25;5.60;;;;;;;23.03;59.10;100663.00;5052619;28;20078;-85
2021/06/30 01:35:34;;;;;;;6.88;6.05;;;;;;;23.03;59.01;100663.00;5052724;28;20040;-86
2021/06/30 01:37:59;;;;;;;7.70;5.63;;;;;;;23.03;59.30;100661.16;5052425;28;20474;-86
2021/06/30 01:40:25;;;;;;;7.22;5.78;;;;;;;23.06;59.41;100663.44;5039457;28;20076;-85
2021/06/30 01:42:52;;;;;;;5.97;5.47;;;;;;;23.09;59.36;100657.75;5032101;28;20053;-85
2021/06/30 01:45:18;;;;;;;7.45;5.93;;;;;;;23.15;59.68;100656.22;5032492;28;20467;-86
2021/06/30 01:47:43;;;;;;;7.45;6.05;;;;;;;23.20;59.69;100652.97;5035844;28;20035;-86
2021/06/30 01:50:10;;;;;;;6.00;5.40;;;;;;;23.24;59.91;100652.41;5052177;28;20021;-85
2021/06/30 01:52:36;;;;;;;7.15;6.25;;;;;;;23.28;59.57;100651.06;5052065;28;20025;-85
2021/06/30 01:55:04;;;;;;;8.60;5.75;;;;;;;23.31;59.30;100650.69;5051678;28;20021;-86
2021/06/30 01:57:29;;;;;;;9.07;5.60;;;;;;;23.67;58.52;100649.16;5050309;28;20033;-86
2021/06/30 01:59:54;;;;;;;7.78;5.95;;;;;;;23.41;59.03;100649.59;5052215;28;20179;-86
2021/06/30 02:02:20;;;;;;;6.53;5.75;;;;;;;23.70;58.00;100641.59;5052143;28;20029;-86
2021/06/30 02:05:04;;;;;;;8.77;5.30;;;;;;;23.82;58.00;100644.69;5052022;28;20504;-86
2021/06/30 02:07:31;;;;;;;9.50;6.00;;;;;;;23.76;57.67;100638.16;5052111;28;20214;-86
2021/06/30 02:09:57;;;;;;;8.07;5.53;;;;;;;23.75;57.77;100639.16;5052208;28;20025;-85
2021/06/30 02:12:22;;;;;;;6.88;5.57;;;;;;;23.76;57.65;100638.16;5050206;28;20040;-85
2021/06/30 02:14:48;;;;;;;5.80;5.22;;;;;;;23.81;57.80;100642.19;5050027;28;20214;-86
2021/06/30 02:17:17;;;;;;;7.07;5.05;;;;;;;23.82;57.24;100636.63;5051854;28;20025;-86
2021/06/30 02:19:43;;;;;;;7.57;6.00;;;;;;;23.84;57.00;100636.47;5052055;28;20029;-86
2021/06/30 02:22:09;;;;;;;9.18;6.07;;;;;;;23.81;56.86;100639.50;5051653;28;20467;-85
2021/06/30 02:24:34;;;;;;;7.75;5.30;;;;;;;23.50;58.30;100637.78;5051736;28;20029;-85
2021/06/30 02:27:00;;;;;;;5.82;5.15;;;;;;;23.74;57.40;100634.84;5050470;28;20025;-84
2021/06/30 02:29:25;;;;;;;6.78;5.85;;;;;;;23.80;57.20;100643.22;5044960;28;20030;-84
2021/06/30 02:31:50;;;;;;;6.65;5.97;;;;;;;23.67;57.51;100641.94;5031716;28;20056;-84
2021/06/30 02:34:16;;;;;;;5.80;5.00;;;;;;;23.48;58.23;100640.66;5031886;28;20068;-84
2021/06/30 02:36:41;;;;;;;14.57;5.00;;;;;;;23.44;58.13;100643.88;5031970;28;20546;-84
2021/06/30 02:39:06;;;;;;;6.75;5.68;;;;;;;23.40;58.29;100645.25;5031704;28;20526;-84
2021/06/30 02:41:32;;;;;;;6.32;5.57;;;;;;;23.38;58.51;100647.28;5031742;28;20044;-85
2021/06/30 02:43:57;;;;;;;6.20;5.35;;;;;;;23.29;58.68;100641.19;5036394;28;20056;-84
2021/06/30 02:46:22;;;;;;;5.53;4.68;;;;;;;23.22;58.79;100634.88;5051162;28;20123;-84
2021/06/30 02:48:48;;;;;;;5.95;5.45;;;;;;;23.26;58.66;100641.53;5051591;28;20029;-84
2021/06/30 02:51:14;;;;;;;6.18;5.57;;;;;;;23.17;58.90;100640.78;5051346;28;20025;-84
2021/06/30 02:53:39;;;;;;;6.93;5.88;;;;;;;23.15;58.82;100640.13;5051404;28;20075;-84
2021/06/30 02:56:05;;;;;;;8.85;5.68;;;;;;;23.14;58.77;100644.66;5049553;28;20021;-84
2021/06/30 02:58:30;;;;;;;6.40;5.57;;;;;;;23.14;58.84;100644.66;5051365;28;20108;-84
2021/06/30 03:00:56;;;;;;;6.25;5.38;;;;;;;23.09;59.04;100647.03;5049485;28;20399;-84
2021/06/30 03:03:21;;;;;;;6.45;5.40;;;;;;;23.13;58.93;100644.84;5051225;28;20501;-84
2021/06/30 03:05:46;;;;;;;6.18;5.55;;;;;;;23.13;58.88;100644.84;5051206;28;20068;-84
2021/06/30 03:08:12;;;;;;;6.60;5.90;;;;;;;23.20;58.50;100645.75;5054276;28;20044;-84
2021/06/30 03:10:37;;;;;;;8.13;6.05;;;;;;;23.21;58.41;100649.28;5054007;28;20025;-84
2021/06/30 03:13:03;;;;;;;6.45;5.65;;;;;;;23.19;58.49;100645.97;5055300;28;20025;-84
2021/06/30 03:15:28;;;;;;;6.57;5.95;;;;;;;23.16;58.34;100652.50;5039347;28;20068;-84
2021/06/30 03:17:53;;;;;;;7.45;5.80;;;;;;;23.14;58.42;100650.03;5055037;28;20078;-84
2021/06/30 03:20:19;;;;;;;6.60;5.97;;;;;;;23.12;58.34;100652.06;5055379;28;20447;-84
2021/06/30 03:22:44;;;;;;;7.55;6.35;;;;;;;23.13;58.52;100647.53;5054769;28;20028;-84
2021/06/30 03:25:12;;;;;;;6.30;5.70;;;;;;;23.12;58.47;100651.19;5054689;28;20029;-84
2021/06/30 03:27:38;;;;;;;7.82;5.85;;;;;;;23.12;58.25;100652.06;5054845;28;20017;-84
2021/06/30 03:30:05;;;;;;;6.85;5.88;;;;;;;23.14;58.34;100649.16;5054021;28;20021;-84
2021/06/30 03:32:31;;;;;;;6.38;5.78;;;;;;;23.06;58.25;100652.75;5035090;28;20479;-84
2021/06/30 03:34:57;;;;;;;6.93;6.22;;;;;;;23.04;58.20;100648.59;5035006;28;20041;-84
2021/06/30 03:37:22;;;;;;;6.68;5.50;;;;;;;23.03;58.34;100654.97;5034863;28;20037;-84
2021/06/30 03:39:48;;;;;;;6.82;6.13;;;;;;;23.02;58.37;100653.25;5034981;28;20033;-84
2021/06/30 03:42:13;;;;;;;6.13;5.53;;;;;;;22.97;58.26;100654.63;5034517;28;20021;-84
2021/06/30 03:44:38;;;;;;;7.00;6.30;;;;;;;22.93;58.53;100647.97;5034452;28;20092;-84
2021/06/30 03:47:04;;;;;;;7.10;5.95;;;;;;;22.78;58.67;100650.59;5035660;28;20415;-84
2021/06/30 03:49:30;;;;;;;6.70;6.00;;;;;;;22.81;58.77;100654.75;5034750;28;20025;-84
2021/06/30 03:51:55;;;;;;;7.57;6.30;;;;;;;22.81;58.71;100649.41;5034443;28;20360;-83
2021/06/30 03:54:24;;;;;;;7.40;5.78;;;;;;;22.93;58.56;100655.19;5034620;28;20021;-84
2021/06/30 03:56:51;;;;;;;8.43;5.85;;;;;;;22.88;58.39;100655.69;5034575;28;20022;-84
2021/06/30 03:59:16;;;;;;;7.05;5.57;;;;;;;22.91;58.12;100651.84;5034253;28;20036;-84
2021/06/30 04:01:42;;;;;;;7.07;6.38;;;;;;;22.93;58.42;100653.34;5044163;28;20433;-84
2021/06/30 04:04:11;;;;;;;6.78;5.40;;;;;;;22.93;58.17;100652.50;5054317;28;20025;-84
2021/06/30 04:06:37;;;;;;;7.00;6.32;;;;;;;22.84;58.10;100657.06;5054156;28;20067;-84
2021/06/30 04:09:04;;;;;;;8.13;6.47;;;;;;;22.87;58.04;100659.41;5053032;28;20021;-84
2021/06/30 04:11:29;;;;;;;6.00;5.40;;;;;;;22.80;58.18;100654.94;5054031;28;20021;-84
2021/06/30 04:13:55;;;;;;;6.97;6.00;;;;;;;22.85;58.12;100660.56;5054034;28;20425;-84
2021/06/30 04:16:20;;;;;;;8.20;6.03;;;;;;;22.84;58.04;100653.56;5052188;28;20046;-84
2021/06/30 04:18:46;;;;;;;9.82;5.97;;;;;;;22.85;58.09;100660.56;5051727;28;20441;-84
2021/06/30 04:21:11;;;;;;;7.68;6.40;;;;;;;22.82;58.05;100661.78;5053807;28;20056;-84
2021/06/30 04:23:36;;;;;;;8.15;6.30;;;;;;;22.82;57.80;100661.78;5053981;28;20368;-84
2021/06/30 04:26:03;;;;;;;7.05;6.38;;;;;;;22.87;58.01;100663.94;5054050;28;20040;-83
2021/06/30 04:28:29;;;;;;;7.00;5.72;;;;;;;22.81;57.92;100662.78;5053821;28;20112;-83
2021/06/30 04:30:55;;;;;;;6.72;6.00;;;;;;;22.83;57.71;100662.59;5053904;28;20096;-83
2021/06/30 04:33:21;;;;;;;7.20;6.45;;;;;;;22.82;57.90;100653.75;5051966;28;20545;-84
2021/06/30 04:35:46;;;;;;;6.80;5.80;;;;;;;22.86;57.60;100654.22;5053773;28;20029;-83
2021/06/30 04:38:12;;;;;;;7.20;6.40;;;;;;;22.85;57.56;100656.06;5054682;28;20029;-84
2021/06/30 04:40:37;;;;;;;7.68;6.10;;;;;;;22.69;58.04;100662.38;5053673;28;20059;-84
2021/06/30 04:43:03;;;;;;;6.93;6.22;;;;;;;22.68;58.26;100665.22;5053538;28;20060;-83
2021/06/30 04:45:28;;;;;;;12.18;6.20;;;;;;;22.63;58.65;100662.22;5053647;28;20071;-83
2021/06/30 04:47:53;;;;;;;7.18;6.47;;;;;;;22.65;58.14;100662.88;5052173;28;20063;-83
2021/06/30 04:50:19;;;;;;;7.30;6.57;;;;;;;22.64;58.23;100655.88;5033286;28;20037;-83
2021/06/30 04:52:44;;;;;;;7.15;6.43;;;;;;;22.64;58.19;100663.91;5033385;28;20060;-83
2021/06/30 04:55:10;;;;;;;7.22;6.53;;;;;;;22.64;58.06;100658.56;5033542;28;20484;-84
2021/06/30 04:57:37;;;;;;;6.50;5.65;;;;;;;22.66;58.25;100659.22;5033499;28;20175;-84
2021/06/30 05:00:08;;;;;;;7.63;6.70;;;;;;;22.72;57.95;100655.81;5033667;28;20025;-84
2021/06/30 05:02:34;;;;;;;6.30;5.70;;;;;;;22.64;57.99;100662.06;5033995;28;20056;-84
2021/06/30 05:05:00;;;;;;;8.65;6.65;;;;;;;22.62;58.27;100660.56;5042175;28;20025;-84
2021/06/30 05:07:26;;;;;;;6.47;5.82;;;;;;;22.66;57.86;100661.88;5053008;28;20029;-84
2021/06/30 05:09:51;;;;;;;8.32;5.82;;;;;;;22.68;58.18;100659.88;5041795;28;20039;-84
2021/06/30 05:12:17;;;;;;;6.25;5.65;;;;;;;22.72;58.49;100655.81;5031742;28;20117;-83
2021/06/30 05:14:43;;;;;;;7.38;5.57;;;;;;;22.73;58.79;100660.19;5050942;28;20025;-84
2021/06/30 05:17:08;;;;;;;6.53;5.65;;;;;;;22.75;58.54;100652.81;5053241;28;20029;-83
2021/06/30 05:19:34;;;;;;;8.43;6.90;;;;;;;22.69;59.63;100664.19;5053261;28;20107;-83
2021/06/30 05:21:59;;;;;;;12.70;6.05;;;;;;;22.77;59.38;100659.63;5043766;28;20029;-83
2021/06/30 05:24:24;;;;;;;10.35;7.15;;;;;;;22.78;60.16;100663.13;5041490;28;20464;-83
2021/06/30 05:26:51;;;;;;;7.43;5.80;;;;;;;22.74;60.82;100653.81;5035884;28;20380;-83
2021/06/30 05:29:16;;;;;;;7.78;6.63;;;;;;;22.79;60.75;100667.50;5050484;28;20051;-83
2021/06/30 05:31:41;;;;;;;11.25;8.27;;;;;;;22.81;60.54;100657.44;5034526;28;20507;-83
2021/06/30 05:34:07;;;;;;;9.98;6.95;;;;;;;22.74;60.82;100656.47;5032873;28;20056;-83
2021/06/30 05:36:32;;;;;;;8.40;7.18;;;;;;;22.70;60.69;100661.34;5035835;28;20156;-83
2021/06/30 05:38:58;;;;;;;7.22;6.28;;;;;;;22.70;60.65;100668.56;5048533;28;20123;-84
2021/06/30 05:41:23;;;;;;;14.05;6.55;;;;;;;22.82;60.49;100671.66;5046167;28;20037;-79
2021/06/30 05:43:49;;;;;;;17.40;7.60;;;;;;;22.96;59.96;100678.91;5042277;28;20021;-84
2021/06/30 05:46:17;;;;;;;14.02;8.10;;;;;;;23.04;59.87;100678.03;5055807;28;20032;-83
2021/06/30 05:48:42;;;;;;;19.08;7.75;;;;;;;23.02;60.28;100669.31;5038137;28;20065;-84
2021/06/30 05:51:07;;;;;;;16.98;7.47;;;;;;;23.03;60.26;100679.06;5032351;28;20117;-83
2021/06/30 05:53:33;;;;;;;18.40;7.88;;;;;;;23.00;60.42;100680.22;5032155;28;20388;-84
2021/06/30 05:55:58;;;;;;;11.80;6.75;;;;;;;23.00;60.32;100674.84;5032098;28;20030;-83
2021/06/30 05:58:24;;;;;;;9.65;7.30;;;;;;;23.20;59.67;100671.72;5042048;28;20036;-79
2021/06/30 06:00:49;;;;;;;11.63;7.88;;;;;;;23.22;59.93;100672.38;5039611;28;20040;-79
2021/06/30 06:03:14;;;;;;;16.05;7.78;;;;;;;23.25;60.14;100677.38;5048189;28;20021;-78
2021/06/30 06:05:40;;;;;;;18.20;7.75;;;;;;;23.31;60.22;100672.13;5036864;28;20037;-79
2021/06/30 06:08:05;;;;;;;15.20;7.40;;;;;;;23.31;60.28;100672.13;5048175;28;20033;-80
2021/06/30 06:10:31;;;;;;;9.35;7.40;;;;;;;23.41;60.25;100668.38;5031686;28;20136;-78
2021/06/30 06:12:56;;;;;;;10.38;7.68;;;;;;;23.49;59.84;100663.75;4972665;28;20081;-78
2021/06/30 06:15:21;;;;;;;13.88;7.70;;;;;;;23.59;59.63;100660.81;5004635;28;20033;-79
2021/06/30 06:17:47;;;;;;;13.10;7.63;;;;;;;23.73;58.74;100662.66;5022607;28;20112;-79
2021/06/30 06:20:13;;;;;;;11.65;7.97;;;;;;;23.76;58.44;100659.63;5020359;28;20033;-79
2021/06/30 06:22:39;;;;;;;14.88;7.22;;;;;;;23.85;58.48;100659.56;5023142;28;20065;-79
2021/06/30 06:25:07;;;;;;;12.02;7.22;;;;;;;23.98;58.39;100657.06;5047230;28;20056;-79
2021/06/30 06:27:38;;;;;;;8.80;7.05;;;;;;;24.14;57.53;100659.53;5040698;28;20029;-79
2021/06/30 06:30:05;;;;;;;10.65;6.63;;;;;;;24.23;57.72;100667.47;5050010;28;20025;-79
2021/06/30 06:32:31;;;;;;;11.13;7.70;;;;;;;24.32;57.35;100663.66;5061811;28;20402;-78
2021/06/30 06:34:56;;;;;;;9.80;7.22;;;;;;;24.45;56.82;100669.19;5039334;28;20029;-79
2021/06/30 06:37:22;;;;;;;10.38;7.10;;;;;;;24.54;56.05;100673.44;5032097;28;20036;-79
2021/06/30 06:39:47;;;;;;;8.93;7.13;;;;;;;24.48;56.49;100671.50;5046224;28;20021;-79
2021/06/30 06:42:13;;;;;;;12.05;7.65;;;;;;;24.58;56.12;100673.09;5041117;28;20417;-79
2021/06/30 06:44:41;;;;;;;11.27;7.78;;;;;;;24.82;55.72;100671.88;5040554;28;20032;-79
2021/06/30 06:47:07;;;;;;;11.88;7.25;;;;;;;24.87;54.97;100672.97;5050425;28;20047;-79
2021/06/30 06:49:32;;;;;;;11.02;7.45;;;;;;;24.96;54.58;100680.91;5037206;28;20033;-80
2021/06/30 06:51:59;;;;;;;22.05;7.20;;;;;;;25.07;54.29;100677.72;5044615;28;20108;-79
2021/06/30 06:54:25;;;;;;;14.60;8.48;;;;;;;25.12;54.28;100677.97;5046835;28;20017;-79
2021/06/30 06:56:51;;;;;;;12.30;7.55;;;;;;;25.22;54.06;100685.75;5050481;28;20427;-79
2021/06/30 06:59:16;;;;;;;11.02;7.43;;;;;;;25.47;52.99;100684.25;5050349;28;20036;-79
2021/06/30 07:01:41;;;;;;;18.65;7.45;;;;;;;25.59;53.18;100687.22;5044527;28;20061;-77
2021/06/30 07:04:07;;;;;;;13.10;7.60;;;;;;;26.07;51.72;100690.06;5034125;28;20033;-79
2021/06/30 07:06:32;;;;;;;10.15;6.22;;;;;;;26.20;51.67;100699.22;5031232;28;20383;-79
2021/06/30 07:08:57;;;;;;;10.30;6.43;;;;;;;26.41;51.18;100692.91;5032494;28;20178;-79
2021/06/30 07:11:23;;;;;;;12.18;5.75;;;;;;;26.27;51.51;100692.00;5044488;28;20434;-79
2021/06/30 07:13:48;;;;;;;14.57;6.65;;;;;;;26.23;51.46;100696.97;5031300;28;20041;-78
2021/06/30 07:16:14;;;;;;;10.75;6.30;;;;;;;26.52;50.90;100697.69;5049521;28;20079;-78
2021/06/30 07:18:40;;;;;;;8.05;5.90;;;;;;;26.34;51.42;100700.94;5049607;28;20029;-78
2021/06/30 07:21:08;;;;;;;15.80;6.63;;;;;;;26.29;51.69;100704.22;5049460;28;20056;-78
2021/06/30 07:23:34;;;;;;;14.52;6.03;;;;;;;26.32;51.59;100708.38;5050862;28;20028;-79
2021/06/30 07:25:59;;;;;;;16.58;5.90;;;;;;;26.39;51.60;100698.47;5038105;28;20029;-78
2021/06/30 07:28:25;;;;;;;14.75;5.45;;;;;;;26.31;51.73;100704.03;5050008;28;20029;-78
2021/06/30 07:30:51;;;;;;;10.75;5.28;;;;;;;26.16;52.21;100703.34;5036811;28;20040;-78
2021/06/30 07:33:17;;;;;;;12.98;6.50;;;;;;;26.14;52.05;100714.31;5049969;28;20028;-79
2021/06/30 07:35:42;;;;;;;20.90;5.97;;;;;;;26.02;52.50;100711.34;5039740;28;20167;-79
2021/06/30 07:38:09;;;;;;;13.80;7.13;;;;;;;26.05;52.21;100704.75;5032289;28;20037;-79
2021/06/30 07:40:35;;;;;;;22.58;6.78;;;;;;;25.94;52.41;100706.13;5030955;28;20025;-79
2021/06/30 07:43:00;;;;;;;15.00;6.35;;;;;;;25.84;52.39;100702.94;5035847;28;20360;-79
2021/06/30 07:45:26;;;;;;;12.77;6.70;;;;;;;25.85;52.12;100709.94;5049260;28;20295;-79
2021/06/30 07:47:52;;;;;;;17.00;8.43;;;;;;;25.83;52.00;100714.69;5050113;28;20035;-79
2021/06/30 07:50:18;;;;;;;12.20;7.05;;;;;;;25.72;52.52;100718.78;5045476;28;20030;-78
2021/06/30 07:52:46;;;;;;;18.67;8.10;;;;;;;25.67;52.57;100724.75;5033029;28;20028;-79
2021/06/30 07:55:12;;;;;;;14.68;7.18;;;;;;;25.68;52.49;100726.41;5070053;28;20021;-78
2021/06/30 07:57:37;;;;;;;15.38;7.05;;;;;;;25.70;52.16;100718.97;5054291;28;20025;-79
2021/06/30 08:00:05;;;;;;;16.48;9.13;;;;;;;25.69;52.20;100732.59;5035248;28;20507;-78
2021/06/30 08:02:32;;;;;;;14.93;8.07;;;;;;;25.62;51.86;100724.50;5036037;28;20033;-78
2021/06/30 08:04:57;;;;;;;11.70;7.57;;;;;;;25.73;52.21;100721.28;5053497;28;20487;-79
2021/06/30 08:07:23;;;;;;;13.13;7.20;;;;;;;25.76;52.20;100727.28;5054345;28;20075;-78
2021/06/30 08:09:48;;;;;;;12.35;8.23;;;;;;;25.76;51.18;100729.97;5035373;28;20032;-78
2021/06/30 08:12:14;;;;;;;13.10;8.70;;;;;;;25.77;51.47;100729.78;5034396;28;20033;-77
2021/06/30 08:14:39;;;;;;;14.88;8.05;;;;;;;25.82;51.24;100735.41;5042473;28;20033;-78
2021/06/30 08:17:05;;;;;;;14.80;7.45;;;;;;;25.79;51.41;100732.25;5036085;28;20029;-77
2021/06/30 08:19:31;;;;;;;16.15;9.80;;;;;;;25.65;51.15;100732.19;5044829;28;20151;-78
2021/06/30 08:21:56;;;;;;;19.77;13.10;;;;;;;25.40;50.82;100734.47;5034105;28;20511;-78
2021/06/30 08:24:22;;;;;;;19.17;12.70;;;;;;;25.32;50.82;100726.53;5048982;28;20056;-78
2021/06/30 08:26:47;;;;;;;19.75;13.73;;;;;;;25.34;50.80;100727.19;5054052;28;20029;-78
2021/06/30 08:29:12;;;;;;;20.95;13.68;;;;;;;25.44;50.08;100721.47;5053969;28;20021;-78
2021/06/30 08:31:38;;;;;;;21.27;13.75;;;;;;;25.45;50.07;100728.50;5052387;28;20045;-78
2021/06/30 08:34:03;;;;;;;16.08;13.48;;;;;;;25.29;50.78;100727.75;5053402;28;20104;-78
2021/06/30 08:36:29;;;;;;;15.77;12.25;;;;;;;25.46;50.86;100730.19;5053613;28;20025;-78
2021/06/30 08:38:54;;;;;;;17.85;11.23;;;;;;;25.53;50.76;100725.66;5051535;28;20391;-79
2021/06/30 08:41:22;;;;;;;14.75;10.75;;;;;;;25.63;51.14;100734.25;5051616;28;20494;-77
2021/06/30 08:43:49;;;;;;;17.15;10.75;;;;;;;25.73;50.45;100732.03;5048587;28;20134;-77
2021/06/30 08:46:21;;;;;;;15.75;10.85;;;;;;;26.64;48.80;100732.97;5044493;28;20446;-77
2021/06/30 08:48:49;;;;;;;16.77;9.75;;;;;;;27.16;47.62;100736.81;5032249;28;20068;-77
2021/06/30 08:51:22;;;;;;;14.35;9.45;;;;;;;26.79;48.43;100741.72;5034770;28;20448;-78
2021/06/30 08:53:48;;;;;;;15.07;8.93;;;;;;;26.47;49.50;100741.38;5045732;28;20190;-78
2021/06/30 08:56:15;;;;;;;12.73;8.93;;;;;;;26.58;49.13;100731.94;5033664;28;20425;-78
2021/06/30 08:58:42;;;;;;;15.73;8.27;;;;;;;26.54;49.40;100740.56;5033273;28;20105;-78
2021/06/30 09:01:07;;;;;;;16.15;8.73;;;;;;;26.38;50.02;100739.06;5036845;28;20052;-78
2021/06/30 09:03:33;;;;;;;13.90;9.30;;;;;;;26.28;50.20;100734.88;5042991;28;20017;-79
2021/06/30 09:06:11;;;;;;;16.73;8.52;;;;;;;26.55;49.62;100734.16;5047765;28;20040;-82
2021/06/30 09:08:37;;;;;;;25.02;8.90;;;;;;;26.27;50.20;100729.69;5033438;28;20040;-83
2021/06/30 09:11:10;;;;;;;20.95;8.68;;;;;;;26.39;50.56;100730.78;5051370;28;20020;-83
2021/06/30 09:13:36;;;;;;;12.20;7.85;;;;;;;26.33;50.55;100731.59;5052727;28;20033;-83
2021/06/30 09:16:02;;;;;;;19.30;8.30;;;;;;;26.37;50.41;100727.47;5052058;28;20025;-83
2021/06/30 09:18:34;;;;;;;14.32;7.60;;;;;;;26.48;49.93;100731.44;5053099;28;20024;-83
2021/06/30 09:21:18;;;;;;;;;;;;;;;26.63;49.86;100731.31;5052068;28;20070;-83
2021/06/30 09:24:05;;;;;;;9.38;7.10;;;;;;;26.80;49.30;100721.84;5053020;28;19917;-83
2021/06/30 09:26:35;;;;;;;9.63;7.00;;;;;;;26.76;49.29;100723.28;5045574;28;20041;-83
2021/06/30 09:29:12;;;;;;;15.70;7.35;;;;;;;26.95;49.11;100728.91;5052560;28;20159;-83
2021/06/30 09:31:41;;;;;;;13.48;7.30;;;;;;;27.07;48.69;100721.88;5052742;28;20112;-83
2021/06/30 09:34:07;;;;;;;9.52;7.15;;;;;;;27.09;48.51;100735.97;5051849;28;20032;-82
2021/06/30 09:36:53;;;;;;;8.63;6.32;;;;;;;27.12;48.54;100729.38;5033799;28;20025;-83
2021/06/30 09:39:19;;;;;;;13.82;6.72;;;;;;;26.79;49.09;100722.88;5043887;28;20483;-83
2021/06/30 09:41:45;;;;;;;8.82;6.00;;;;;;;26.85;49.04;100723.91;5052520;28;20072;-83
2021/06/30 09:44:18;;;;;;;12.77;6.78;;;;;;;27.11;48.46;100720.44;5048707;28;20053;-82
2021/06/30 09:46:45;;;;;;;12.32;6.25;;;;;;;27.12;48.39;100722.09;5032287;28;20033;-82
2021/06/30 09:49:16;;;;;;;8.32;6.28;;;;;;;27.17;48.34;100716.91;5033486;28;20051;-82
2021/06/30 09:51:43;;;;;;;17.67;7.20;;;;;;;27.15;48.30;100710.91;5032354;28;20083;-83
2021/06/30 09:54:14;;;;;;;9.40;6.35;;;;;;;27.12;48.52;100711.31;5039732;28;20088;-83
2021/06/30 09:56:56;;;;;;;7.25;5.80;;;;;;;27.29;48.14;100706.38;5052425;28;20028;-83
2021/06/30 09:59:35;;;;;;;7.28;5.70;;;;;;;27.27;48.11;100705.75;5050425;28;20040;-83
2021/06/30 10:02:03;;;;;;;9.75;6.43;;;;;;;27.27;48.01;100717.38;5052363;28;20029;-82
2021/06/30 10:04:39;;;;;;;10.75;6.28;;;;;;;27.35;48.04;100710.09;5040955;28;20045;-83
2021/06/30 10:07:22;;;;;;;8.77;5.53;;;;;;;27.40;47.86;100713.03;5032153;28;20029;-82
2021/06/30 10:09:48;;;;;;;10.18;6.38;;;;;;;27.41;47.72;100707.44;5040079;28;20376;-82
2021/06/30 10:12:16;;;;;;;11.15;6.00;;;;;;;27.64;47.42;100706.97;5044064;28;20071;-83
2021/06/30 10:14:44;;;;;;;12.55;5.40;;;;;;;27.62;47.45;100703.66;5045218;28;20589;-83
2021/06/30 10:17:11;;;;;;;9.73;5.53;;;;;;;27.65;47.29;100715.91;5051350;28;20037;-83
2021/06/30 10:19:38;;;;;;;8.93;5.28;;;;;;;27.65;47.46;100702.44;5041560;28;20039;-83
2021/06/30 10:22:08;;;;;;;8.07;5.40;;;;;;;27.75;47.23;100696.59;5039418;28;20064;-83
2021/06/30 10:24:34;;;;;;;6.90;4.80;;;;;;;27.76;47.07;100698.25;5049700;28;20017;-83
2021/06/30 10:27:01;;;;;;;9.20;5.20;;;;;;;27.79;46.97;100703.25;5045095;28;20029;-83
2021/06/30 10:29:29;;;;;;;5.28;4.60;;;;;;;27.90;46.83;100705.31;5042492;28;20029;-83
2021/06/30 10:32:08;;;;;;;7.15;4.95;;;;;;;27.92;46.76;100703.22;5036357;28;20033;-83
2021/06/30 10:34:51;;;;;;;9.20;5.65;;;;;;;27.83;47.08;100710.69;5042313;28;20025;-81
2021/06/30 10:37:18;;;;;;;7.28;4.90;;;;;;;27.73;47.04;100698.69;5039201;28;20025;-82
2021/06/30 10:39:47;;;;;;;6.22;4.60;;;;;;;27.49;47.61;100698.31;5044295;28;20036;-83
2021/06/30 10:45:23;;;;;;;9.25;4.80;;;;;;;27.59;47.67;100696.00;5051978;28;20029;-83
2021/06/30 10:47:54;;;;;;;6.13;4.55;;;;;;;27.36;48.15;100698.31;5031733;28;20394;-83
2021/06/30 10:50:30;;;;;;;11.75;4.13;;;;;;;27.52;47.62;100697.88;5031748;28;20395;-82
2021/06/30 10:53:15;;;;;;;8.35;4.75;;;;;;;27.28;48.02;100697.47;5040489;28;20034;-81
2021/06/30 10:55:51;;;;;;;6.82;4.40;;;;;;;26.98;48.57;100698.88;5031599;28;20025;-82
2021/06/30 10:58:23;;;;;;;7.97;4.60;;;;;;;26.93;48.76;100710.25;5034889;28;20079;-81
2021/06/30 11:00:58;;;;;;;7.07;4.90;;;;;;;26.96;48.88;100707.16;5049394;28;20053;-82
2021/06/30 11:03:30;;;;;;;8.35;4.82;;;;;;;27.00;48.83;100697.63;5051295;28;20092;-81
2021/06/30 11:06:14;;;;;;;7.63;4.65;;;;;;;27.06;48.80;100704.88;5051495;28;20033;-81
2021/06/30 11:08:45;;;;;;;10.35;4.82;;;;;;;27.03;48.62;100709.84;5049724;28;20147;-82
2021/06/30 11:11:26;;;;;;;;;;;;;;;27.28;48.22;100712.81;5045695;28;20034;-82
2021/06/30 11:13:51;;;;;;;7.43;4.88;;;;;;;27.14;48.47;100708.44;5041042;28;19925;-82
2021/06/30 11:16:45;;;;;;;5.50;4.05;;;;;;;27.27;48.47;100703.91;5040926;28;20117;-82
2021/06/30 11:19:17;;;;;;;11.73;4.60;;;;;;;27.23;48.53;100705.31;5043993;28;20018;-82
2021/06/30 11:21:44;;;;;;;6.88;4.05;;;;;;;27.10;48.58;100703.44;5044306;28;20026;-82
2021/06/30 11:24:35;;;;;;;7.63;5.05;;;;;;;27.19;48.57;100697.84;5031615;28;20055;-82